Time;durP1;ratioP1;P1;durP2;ratioP2;P2;SDS_P1;SDS_P2;PMS_P1;PMS_P2;Temp;Humidity;BMP_temperature;BMP_pressure;BME280_temperature;BME280_humidity;BME280_pressure;Samples;Min_cycle;Max_cycle;Signal;HPM_P1;HPM_P2
2021/12/25 00:01:39;;;;;;;19.23;9.63;;;;;;;;;;6246701;28;20022;-74
2021/12/25 00:04:40;;;;;;;16.52;8.82;;;;;;;;;;6246081;28;20018;-74
2021/12/25 00:07:40;;;;;;;21.00;10.52;;;;;;;;;;6247302;28;20040;-74
2021/12/25 00:10:40;;;;;;;20.45;10.55;;;;;;;;;;6247207;28;20103;-74
2021/12/25 00:13:41;;;;;;;18.50;9.43;;;;;;;;;;6246820;28;20053;-74
2021/12/25 00:16:42;;;;;;;18.90;9.18;;;;;;;;;;6247224;28;20099;-74
2021/12/25 00:19:43;;;;;;;19.88;10.57;;;;;;;;;;6245638;28;20112;-74
2021/12/25 00:22:43;;;;;;;16.80;9.27;;;;;;;;;;6247162;28;20017;-74
2021/12/25 00:25:52;;;;;;;18.40;9.00;;;;;;;;;;6246200;28;20743;-74
2021/12/25 00:29:03;;;;;;;14.95;8.45;;;;;;;;;;6229102;28;20425;-74
2021/12/25 00:32:15;;;;;;;23.10;10.77;;;;;;;;;;6222446;28;20049;-74
2021/12/25 00:35:15;;;;;;;16.17;8.63;;;;;;;;;;6237076;28;20450;-74
2021/12/25 00:38:15;;;;;;;16.00;8.73;;;;;;;;;;6237259;28;20089;-74
2021/12/25 00:41:17;;;;;;;20.60;8.38;;;;;;;;;;6241682;28;20022;-74
2021/12/25 00:44:18;;;;;;;14.48;7.13;;;;;;;;;;6246538;28;20021;-74
2021/12/25 00:47:18;;;;;;;16.98;8.88;;;;;;;;;;6246507;28;20029;-74
2021/12/25 00:50:18;;;;;;;27.33;9.95;;;;;;;;;;6246199;28;20047;-74
2021/12/25 00:53:18;;;;;;;15.85;6.22;;;;;;;;;;6246496;28;20032;-74
2021/12/25 00:56:19;;;;;;;14.85;6.93;;;;;;;;;;6245975;28;20075;-74
2021/12/25 00:59:19;;;;;;;14.95;7.65;;;;;;;;;;6245945;28;20013;-74
2021/12/25 01:02:19;;;;;;;14.95;7.43;;;;;;;;;;6244952;28;20014;-74
2021/12/25 01:05:20;;;;;;;16.27;7.28;;;;;;;;;;6246143;28;20045;-74
2021/12/25 01:08:20;;;;;;;15.90;7.03;;;;;;;;;;6245816;28;20021;-74
2021/12/25 01:11:23;;;;;;;15.30;7.90;;;;;;;;;;6245793;28;20040;-74
2021/12/25 01:39:41;;;;;;;13.30;7.47;;;;;;;;;;6220199;28;20033;-74
2021/12/25 01:49:11;;;;;;;13.82;7.45;;;;;;;;;;6245393;28;20037;-73
2021/12/25 01:52:12;;;;;;;16.35;8.18;;;;;;;;;;6245187;28;20032;-73
2021/12/25 01:55:14;;;;;;;20.77;8.85;;;;;;;;;;6244555;28;20456;-73
2021/12/25 01:58:14;;;;;;;23.55;10.25;;;;;;;;;;6226047;28;20036;-73
2021/12/25 02:01:15;;;;;;;18.17;9.00;;;;;;;;;;6223949;28;20394;-73
2021/12/25 02:04:15;;;;;;;19.23;8.02;;;;;;;;;;6240537;28;20060;-73
2021/12/25 02:07:16;;;;;;;34.15;16.20;;;;;;;;;;6238992;28;20024;-73
2021/12/25 02:10:17;;;;;;;24.60;11.77;;;;;;;;;;6234320;28;20025;-73
2021/12/25 02:13:17;;;;;;;17.67;9.20;;;;;;;;;;6240883;28;20132;-73
2021/12/25 02:16:21;;;;;;;31.55;16.42;;;;;;;;;;6254688;28;20275;-73
2021/12/25 02:19:35;;;;;;;28.27;17.48;;;;;;;;;;6243647;28;20484;-73
2021/12/25 02:22:35;;;;;;;25.83;13.90;;;;;;;;;;6241416;28;20313;-73
2021/12/25 02:25:35;;;;;;;26.15;13.10;;;;;;;;;;6240675;28;20009;-73
2021/12/25 02:28:36;;;;;;;26.92;14.75;;;;;;;;;;6241830;28;20028;-73
2021/12/25 02:31:36;;;;;;;26.95;13.25;;;;;;;;;;6240456;28;20090;-73
2021/12/25 02:34:36;;;;;;;23.48;10.52;;;;;;;;;;6243374;28;20060;-73
2021/12/25 02:37:37;;;;;;;19.98;10.50;;;;;;;;;;6240687;28;20053;-73
2021/12/25 02:40:37;;;;;;;21.83;11.07;;;;;;;;;;6218010;28;20026;-73
2021/12/25 02:43:38;;;;;;;26.67;11.93;;;;;;;;;;6243234;28;20018;-73
2021/12/25 02:46:38;;;;;;;22.27;11.00;;;;;;;;;;6243923;28;20074;-73
2021/12/25 02:49:38;;;;;;;17.17;9.65;;;;;;;;;;6242444;28;20049;-73
2021/12/25 02:52:39;;;;;;;11.13;5.40;;;;;;;;;;6242946;28;20032;-73
2021/12/25 02:55:41;;;;;;;10.15;5.43;;;;;;;;;;6242617;28;20052;-73
2021/12/25 02:58:41;;;;;;;7.47;3.45;;;;;;;;;;6242648;28;20006;-73
2021/12/25 03:01:42;;;;;;;11.45;5.10;;;;;;;;;;6239950;28;20445;-73
2021/12/25 03:04:43;;;;;;;8.40;4.97;;;;;;;;;;6242300;28;20145;-73
2021/12/25 03:07:44;;;;;;;8.23;4.47;;;;;;;;;;6242640;28;20440;-73
2021/12/25 03:10:45;;;;;;;6.50;3.75;;;;;;;;;;6222197;28;20029;-73
2021/12/25 03:13:56;;;;;;;5.95;3.95;;;;;;;;;;6233747;28;20046;-73
2021/12/25 03:16:56;;;;;;;8.27;4.37;;;;;;;;;;6230906;28;20481;-73
2021/12/25 03:19:57;;;;;;;8.70;4.82;;;;;;;;;;6231594;28;20049;-73
2021/12/25 03:22:57;;;;;;;5.88;3.10;;;;;;;;;;6228431;28;20432;-73
2021/12/25 03:25:58;;;;;;;8.68;4.35;;;;;;;;;;6242654;28;20022;-73
2021/12/25 03:29:03;;;;;;;9.35;5.20;;;;;;;;;;6218843;28;20018;-73
2021/12/25 03:32:03;;;;;;;6.30;3.05;;;;;;;;;;6219262;28;20022;-73
2021/12/25 03:35:03;;;;;;;7.47;3.78;;;;;;;;;;6219667;28;20084;-73
2021/12/25 03:38:05;;;;;;;10.48;5.07;;;;;;;;;;6232425;28;20018;-73
2021/12/25 03:41:06;;;;;;;4.40;3.00;;;;;;;;;;6247925;28;20485;-73
2021/12/25 03:44:07;;;;;;;5.90;3.60;;;;;;;;;;6246372;28;20405;-73
2021/12/25 03:47:41;;;;;;;6.43;3.50;;;;;;;;;;6247958;28;20021;-73
2021/12/25 04:00:15;;;;;;;6.60;3.90;;;;;;;;;;6247392;28;20029;-73
2021/12/25 04:03:26;;;;;;;11.00;5.22;;;;;;;;;;6247384;28;20021;-73
2021/12/25 04:06:26;;;;;;;6.65;3.70;;;;;;;;;;6247431;28;20330;-74
2021/12/25 04:09:29;;;;;;;10.52;4.35;;;;;;;;;;6247455;28;20052;-74
2021/12/25 04:12:29;;;;;;;5.07;3.67;;;;;;;;;;6245856;28;20048;-74
2021/12/25 04:15:30;;;;;;;3.70;2.45;;;;;;;;;;6245587;28;20025;-74
2021/12/25 04:18:30;;;;;;;9.27;4.57;;;;;;;;;;6246873;28;20083;-74
2021/12/25 04:21:31;;;;;;;6.45;4.43;;;;;;;;;;6247172;28;20460;-74
2021/12/25 04:24:35;;;;;;;7.38;3.03;;;;;;;;;;6246837;28;20029;-74
2021/12/25 04:27:37;;;;;;;8.73;4.38;;;;;;;;;;6237595;28;20098;-74
2021/12/25 05:04:02;;;;;;;8.80;4.30;;;;;;;;;;6246350;28;20556;-75
2021/12/25 05:07:04;;;;;;;8.32;4.03;;;;;;;;;;6246330;28;20016;-75
2021/12/25 05:10:05;;;;;;;10.07;4.13;;;;;;;;;;6245980;28;20028;-75
2021/12/25 05:13:05;;;;;;;12.07;6.43;;;;;;;;;;6244338;28;20049;-75
2021/12/25 05:16:05;;;;;;;8.60;4.32;;;;;;;;;;6245435;28;20018;-75
2021/12/25 05:19:06;;;;;;;10.00;4.60;;;;;;;;;;6245915;28;20025;-75
2021/12/25 05:22:06;;;;;;;9.05;6.00;;;;;;;;;;6261848;28;20442;-75
2021/12/25 05:25:07;;;;;;;8.50;4.32;;;;;;;;;;6244092;28;20112;-75
2021/12/25 05:28:07;;;;;;;11.40;4.03;;;;;;;;;;6233776;28;20381;-75
2021/12/25 05:31:08;;;;;;;8.32;3.35;;;;;;;;;;6226803;28;20025;-75
2021/12/25 05:34:09;;;;;;;7.53;3.65;;;;;;;;;;6245346;28;20049;-75
2021/12/25 05:37:09;;;;;;;10.18;5.47;;;;;;;;;;6227257;28;20025;-75
2021/12/25 05:40:11;;;;;;;10.55;4.30;;;;;;;;;;6245211;28;20052;-75
2021/12/25 05:43:12;;;;;;;11.80;6.13;;;;;;;;;;6245245;28;20389;-75
2021/12/25 05:46:12;;;;;;;10.25;5.38;;;;;;;;;;6243238;28;20020;-75
2021/12/25 05:49:13;;;;;;;12.95;5.35;;;;;;;;;;6245205;28;20101;-75
2021/12/25 05:52:14;;;;;;;11.85;6.10;;;;;;;;;;6244188;28;20515;-75
2021/12/25 05:55:14;;;;;;;14.75;5.85;;;;;;;;;;6243419;28;20053;-75
2021/12/25 05:58:14;;;;;;;13.55;5.47;;;;;;;;;;6244467;28;20018;-75
2021/12/25 06:01:15;;;;;;;13.15;6.20;;;;;;;;;;6243352;28;20488;-74
2021/12/25 06:04:15;;;;;;;11.43;6.30;;;;;;;;;;6244785;28;20079;-74
2021/12/25 06:07:15;;;;;;;9.45;5.40;;;;;;;;;;6244660;28;20017;-74
2021/12/25 06:10:16;;;;;;;6.28;3.80;;;;;;;;;;6244955;28;20100;-74
2021/12/25 06:13:19;;;;;;;7.18;3.58;;;;;;;;;;6244593;28;20049;-74
2021/12/25 06:16:20;;;;;;;7.90;4.53;;;;;;;;;;6243091;28;20021;-74
2021/12/25 06:19:20;;;;;;;9.90;4.05;;;;;;;;;;6242820;28;20025;-74
2021/12/25 06:22:20;;;;;;;13.35;5.25;;;;;;;;;;6244596;28;20049;-74
2021/12/25 06:25:21;;;;;;;7.63;4.75;;;;;;;;;;6244088;28;20071;-74
2021/12/25 06:28:21;;;;;;;13.27;5.75;;;;;;;;;;6230336;28;20049;-74
2021/12/25 06:31:22;;;;;;;11.43;6.40;;;;;;;;;;6224896;28;20021;-74
2021/12/25 06:34:22;;;;;;;11.02;6.13;;;;;;;;;;6234745;28;20017;-74
2021/12/25 06:37:24;;;;;;;12.07;5.28;;;;;;;;;;6238294;28;20112;-74
2021/12/25 06:40:24;;;;;;;9.20;5.05;;;;;;;;;;6237523;28;20428;-74
2021/12/25 06:43:25;;;;;;;9.60;5.15;;;;;;;;;;6242292;28;20021;-74
2021/12/25 06:46:25;;;;;;;8.27;4.15;;;;;;;;;;6242824;28;20014;-74
2021/12/25 06:49:25;;;;;;;7.65;3.80;;;;;;;;;;6240473;28;20510;-74
2021/12/25 06:52:25;;;;;;;10.32;6.28;;;;;;;;;;6241429;28;20036;-74
2021/12/25 06:55:26;;;;;;;10.80;5.07;;;;;;;;;;6239920;28;20068;-74
2021/12/25 06:58:26;;;;;;;5.68;4.40;;;;;;;;;;6243254;28;20029;-74
2021/12/25 07:01:27;;;;;;;12.85;6.22;;;;;;;;;;6236303;28;20069;-74
2021/12/25 07:04:27;;;;;;;9.80;4.75;;;;;;;;;;6242813;28;20037;-74
2021/12/25 07:07:27;;;;;;;10.13;3.83;;;;;;;;;;6243511;28;20010;-74
2021/12/25 07:10:27;;;;;;;11.10;4.68;;;;;;;;;;6243249;28;20055;-74
2021/12/25 07:13:28;;;;;;;19.80;7.28;;;;;;;;;;6241787;28;20137;-74
2021/12/25 07:16:28;;;;;;;11.35;6.63;;;;;;;;;;6242154;28;20026;-74
2021/12/25 07:19:28;;;;;;;11.93;5.25;;;;;;;;;;6242742;28;20474;-74
2021/12/25 07:22:29;;;;;;;10.15;4.40;;;;;;;;;;6242743;28;20013;-74
2021/12/25 07:25:30;;;;;;;9.77;4.28;;;;;;;;;;6242765;28;20013;-74
2021/12/25 07:28:30;;;;;;;11.70;4.75;;;;;;;;;;6230579;28;20477;-74
2021/12/25 07:31:30;;;;;;;11.73;4.68;;;;;;;;;;6218422;28;20430;-74
2021/12/25 07:34:32;;;;;;;8.40;4.38;;;;;;;;;;6222214;28;20018;-74
2021/12/25 07:37:33;;;;;;;9.80;5.37;;;;;;;;;;6227740;28;20105;-74
2021/12/25 07:40:34;;;;;;;10.20;5.10;;;;;;;;;;6226639;28;20370;-74
2021/12/25 07:43:34;;;;;;;10.13;4.97;;;;;;;;;;6241425;28;20032;-74
2021/12/25 07:46:35;;;;;;;11.93;5.88;;;;;;;;;;6237664;28;20498;-74
2021/12/25 07:49:35;;;;;;;9.77;4.55;;;;;;;;;;6236956;28;20025;-74
2021/12/25 07:52:35;;;;;;;8.60;4.30;;;;;;;;;;6241880;28;20021;-74
2021/12/25 07:55:36;;;;;;;10.43;4.45;;;;;;;;;;6241644;28;20025;-74
2021/12/25 07:58:36;;;;;;;5.18;3.30;;;;;;;;;;6235620;28;20084;-74
2021/12/25 08:01:37;;;;;;;7.43;4.40;;;;;;;;;;6227321;28;20022;-74
2021/12/25 08:04:37;;;;;;;15.65;6.75;;;;;;;;;;6239705;28;20102;-74
2021/12/25 08:07:37;;;;;;;19.52;8.57;;;;;;;;;;6237538;28;20339;-74
2021/12/25 08:10:39;;;;;;;15.23;6.55;;;;;;;;;;6231186;28;20045;-74
2021/12/25 08:13:39;;;;;;;13.63;4.10;;;;;;;;;;6214756;28;20049;-74
2021/12/25 08:16:39;;;;;;;12.77;4.43;;;;;;;;;;6229822;28;20068;-74
2021/12/25 08:19:40;;;;;;;16.13;6.28;;;;;;;;;;6240361;28;20425;-74
2021/12/25 08:22:41;;;;;;;12.70;6.20;;;;;;;;;;6233383;28;20342;-74
2021/12/25 08:25:41;;;;;;;16.70;6.22;;;;;;;;;;6238557;28;20080;-74
2021/12/25 08:28:41;;;;;;;20.48;8.80;;;;;;;;;;6233134;28;20049;-75
2021/12/25 08:31:42;;;;;;;11.07;3.95;;;;;;;;;;6224449;28;20449;-75
2021/12/25 08:34:43;;;;;;;16.15;5.93;;;;;;;;;;6243021;28;20097;-75
2021/12/25 08:37:44;;;;;;;16.60;5.38;;;;;;;;;;6245773;28;20427;-75
2021/12/25 08:40:44;;;;;;;13.63;5.25;;;;;;;;;;6245795;28;20013;-75
2021/12/25 08:43:47;;;;;;;10.10;4.22;;;;;;;;;;6235813;28;20024;-75
2021/12/25 08:46:56;;;;;;;9.07;4.25;;;;;;;;;;6253480;28;20025;-75
2021/12/25 08:49:56;;;;;;;18.92;5.93;;;;;;;;;;6241854;28;20026;-75
2021/12/25 08:52:56;;;;;;;18.17;4.82;;;;;;;;;;6246720;28;20075;-75
2021/12/25 08:55:57;;;;;;;13.45;5.57;;;;;;;;;;6245314;28;20027;-75
2021/12/25 08:59:00;;;;;;;12.40;5.63;;;;;;;;;;6236258;28;20104;-75
2021/12/25 09:02:03;;;;;;;12.57;6.43;;;;;;;;;;6260530;28;20661;-75
2021/12/25 09:05:04;;;;;;;12.35;4.72;;;;;;;;;;6244666;28;20066;-75
2021/12/25 09:08:05;;;;;;;11.13;4.80;;;;;;;;;;6245202;28;20021;-75
2021/12/25 09:11:05;;;;;;;12.15;3.40;;;;;;;;;;6246151;28;20021;-75
2021/12/25 09:14:06;;;;;;;10.35;5.55;;;;;;;;;;6245186;28;20049;-75
2021/12/25 09:17:08;;;;;;;8.25;3.83;;;;;;;;;;6260809;28;20554;-75
2021/12/25 09:20:09;;;;;;;15.70;4.32;;;;;;;;;;6243497;28;20354;-75
2021/12/25 09:23:09;;;;;;;11.67;4.47;;;;;;;;;;6241572;28;20013;-75
2021/12/25 09:26:09;;;;;;;26.50;10.90;;;;;;;;;;6242345;28;20025;-75
2021/12/25 09:29:10;;;;;;;22.33;8.68;;;;;;;;;;6222926;28;20100;-75
2021/12/25 09:32:10;;;;;;;20.60;8.43;;;;;;;;;;6218496;28;20037;-75
2021/12/25 09:35:10;;;;;;;8.80;4.65;;;;;;;;;;6239429;28;20037;-75
2021/12/25 09:38:11;;;;;;;14.45;5.18;;;;;;;;;;6243702;28;20483;-75
2021/12/25 09:41:12;;;;;;;18.92;7.10;;;;;;;;;;6244046;28;20021;-75
2021/12/25 09:44:12;;;;;;;17.85;6.95;;;;;;;;;;6243008;28;20060;-75
2021/12/25 09:47:12;;;;;;;17.02;6.32;;;;;;;;;;6243020;28;20025;-74
2021/12/25 09:50:13;;;;;;;17.05;7.82;;;;;;;;;;6243269;28;20037;-75
2021/12/25 09:53:14;;;;;;;22.30;6.75;;;;;;;;;;6241862;28;20032;-74
2021/12/25 09:56:15;;;;;;;22.88;8.05;;;;;;;;;;6241974;28;20018;-74
2021/12/25 09:59:15;;;;;;;19.00;8.82;;;;;;;;;;6242194;28;20061;-74
2021/12/25 10:02:16;;;;;;;24.13;9.38;;;;;;;;;;6243506;28;20017;-74
2021/12/25 10:05:27;;;;;;;22.52;8.90;;;;;;;;;;6242638;28;20393;-74
2021/12/25 10:08:27;;;;;;;17.02;7.78;;;;;;;;;;6241645;28;20114;-74
2021/12/25 10:11:30;;;;;;;23.55;8.80;;;;;;;;;;6241784;28;20382;-74
2021/12/25 10:14:30;;;;;;;14.05;7.03;;;;;;;;;;6243041;28;20056;-74
2021/12/25 10:17:31;;;;;;;17.08;6.15;;;;;;;;;;6242934;28;20030;-74
2021/12/25 10:20:32;;;;;;;16.05;5.93;;;;;;;;;;6242170;28;20029;-74
2021/12/25 10:23:36;;;;;;;15.07;5.70;;;;;;;;;;6242979;28;20021;-74
2021/12/25 10:26:37;;;;;;;14.70;5.93;;;;;;;;;;6242484;28;20021;-74
2021/12/25 10:29:37;;;;;;;14.17;4.63;;;;;;;;;;6219106;28;20112;-74
2021/12/25 10:32:38;;;;;;;16.85;6.43;;;;;;;;;;6218362;28;20025;-74
2021/12/25 10:35:39;;;;;;;13.47;6.00;;;;;;;;;;6217488;28;20037;-74
2021/12/25 10:38:39;;;;;;;23.65;9.95;;;;;;;;;;6233231;28;20026;-74
2021/12/25 10:41:42;;;;;;;18.33;7.60;;;;;;;;;;6226077;28;20013;-74
2021/12/25 10:44:42;;;;;;;78.43;27.30;;;;;;;;;;6240005;28;20212;-74
2021/12/25 10:47:42;;;;;;;22.65;10.35;;;;;;;;;;6241995;28;20465;-73
2021/12/25 10:50:48;;;;;;;36.08;11.20;;;;;;;;;;6241714;28;20025;-73
2021/12/25 10:53:52;;;;;;;15.48;6.22;;;;;;;;;;6242650;28;20021;-73
2021/12/25 10:56:52;;;;;;;25.67;8.80;;;;;;;;;;6242031;28;20084;-73
2021/12/25 10:59:53;;;;;;;28.42;8.57;;;;;;;;;;6241960;28;20103;-73
2021/12/25 11:03:04;;;;;;;23.88;9.57;;;;;;;;;;6240768;28;20056;-73
2021/12/25 11:06:13;;;;;;;24.45;9.55;;;;;;;;;;6241796;28;20024;-73
2021/12/25 11:09:13;;;;;;;17.60;7.75;;;;;;;;;;6241897;28;20029;-73
2021/12/25 11:12:21;;;;;;;15.30;7.18;;;;;;;;;;6240611;28;20021;-73
2021/12/25 11:15:23;;;;;;;17.25;8.38;;;;;;;;;;6242026;28;20112;-73
2021/12/25 11:18:23;;;;;;;13.05;6.65;;;;;;;;;;6241587;28;20407;-73
2021/12/25 11:21:23;;;;;;;18.52;9.50;;;;;;;;;;6242597;28;20021;-72
2021/12/25 11:24:27;;;;;;;22.38;9.35;;;;;;;;;;6241732;28;20014;-72
2021/12/25 11:27:28;;;;;;;16.80;7.53;;;;;;;;;;6236235;28;20046;-72
2021/12/25 11:30:30;;;;;;;20.15;7.90;;;;;;;;;;6218768;28;20018;-72
2021/12/25 11:33:30;;;;;;;25.15;11.20;;;;;;;;;;6221249;28;20441;-72
2021/12/25 11:36:31;;;;;;;20.38;7.85;;;;;;;;;;6229264;28;20028;-72
2021/12/25 11:39:31;;;;;;;21.83;7.20;;;;;;;;;;6238800;28;20414;-72
2021/12/25 11:42:32;;;;;;;15.57;5.82;;;;;;;;;;6232514;28;20359;-72
2021/12/25 11:45:37;;;;;;;18.60;8.32;;;;;;;;;;6239420;28;20017;-72
2021/12/25 11:48:38;;;;;;;17.75;7.63;;;;;;;;;;6242587;28;20029;-72
2021/12/25 11:51:40;;;;;;;20.10;8.57;;;;;;;;;;6242628;28;20025;-72
2021/12/25 11:54:59;;;;;;;21.08;8.48;;;;;;;;;;6242641;28;20342;-72
2021/12/25 11:58:25;;;;;;;24.60;8.82;;;;;;;;;;6246054;28;20006;-72
2021/12/25 12:01:37;;;;;;;18.40;6.53;;;;;;;;;;6246268;28;20493;-72
2021/12/25 12:04:38;;;;;;;;;;;;;;;;;;6247737;28;20036;-72
2021/12/25 12:07:55;;;;;;;26.85;9.63;;;;;;;;;;6233978;28;19913;-72
2021/12/25 12:10:57;;;;;;;32.45;10.30;;;;;;;;;;6232263;28;20030;-72
2021/12/25 12:14:16;;;;;;;22.67;9.82;;;;;;;;;;6227756;28;20402;-71
2021/12/25 12:17:16;;;;;;;23.27;8.45;;;;;;;;;;6225241;28;20489;-72
2021/12/25 12:20:34;;;;;;;26.80;8.90;;;;;;;;;;6237274;28;20029;-72
2021/12/25 12:24:08;;;;;;;18.92;8.02;;;;;;;;;;6239252;28;20113;-71
2021/12/25 12:27:08;;;;;;;16.73;6.97;;;;;;;;;;6234946;28;20038;-71
2021/12/25 12:30:10;;;;;;;15.95;6.88;;;;;;;;;;6238558;28;20025;-72
2021/12/25 12:33:10;;;;;;;24.02;10.30;;;;;;;;;;6245829;28;20490;-72
2021/12/25 12:36:21;;;;;;;24.73;10.05;;;;;;;;;;6242651;28;20036;-71
2021/12/25 12:39:21;;;;;;;21.40;7.82;;;;;;;;;;6237544;28;20017;-72
2021/12/25 12:42:46;;;;;;;20.35;7.97;;;;;;;;;;6242807;28;20021;-71
2021/12/25 12:45:52;;;;;;;22.13;8.20;;;;;;;;;;6242330;28;20299;-70
2021/12/25 12:49:06;;;;;;;24.95;9.15;;;;;;;;;;6245280;28;20018;-71
2021/12/25 12:52:09;;;;;;;28.65;10.13;;;;;;;;;;6261123;28;20021;-70
2021/12/25 12:55:11;;;;;;;23.85;10.50;;;;;;;;;;6245415;28;20017;-71
2021/12/25 12:58:13;;;;;;;16.25;6.43;;;;;;;;;;6242543;28;20014;-71
2021/12/25 13:01:13;;;;;;;19.25;7.35;;;;;;;;;;6239038;28;20021;-71
2021/12/25 13:04:13;;;;;;;20.80;7.03;;;;;;;;;;6225323;28;20018;-71
2021/12/25 13:07:16;;;;;;;18.55;7.57;;;;;;;;;;6224467;28;20444;-71
2021/12/25 13:10:25;;;;;;;15.90;6.15;;;;;;;;;;6243856;28;20465;-71
2021/12/25 13:13:31;;;;;;;19.90;7.47;;;;;;;;;;6244604;28;20048;-71
2021/12/25 13:16:39;;;;;;;16.73;6.80;;;;;;;;;;6245597;28;20452;-71
2021/12/25 13:19:46;;;;;;;20.77;6.63;;;;;;;;;;6243885;28;20386;-71
2021/12/25 13:22:56;;;;;;;20.52;7.18;;;;;;;;;;6244229;28;20378;-70
2021/12/25 13:25:58;;;;;;;18.10;6.18;;;;;;;;;;6242388;28;20104;-70
2021/12/25 13:28:59;;;;;;;;;;;;;;;;;;6223516;28;20497;-70
2021/12/25 13:32:00;;;;;;;25.15;8.95;;;;;;;;;;6219333;28;20470;-70
2021/12/25 13:35:00;;;;;;;26.60;8.18;;;;;;;;;;6219488;28;20536;-70
2021/12/25 13:38:01;;;;;;;21.30;8.10;;;;;;;;;;6219903;28;20093;-71
2021/12/25 13:41:01;;;;;;;20.83;8.65;;;;;;;;;;6223588;28;20018;-71
2021/12/25 13:44:06;;;;;;;15.77;6.55;;;;;;;;;;6245266;28;20020;-70
2021/12/25 13:47:13;;;;;;;16.20;6.78;;;;;;;;;;6245020;28;20017;-70
2021/12/25 13:50:13;;;;;;;12.48;5.40;;;;;;;;;;6245379;28;20399;-70
2021/12/25 13:53:19;;;;;;;16.92;6.10;;;;;;;;;;6245315;28;20032;-70
2021/12/25 13:56:20;;;;;;;13.77;5.63;;;;;;;;;;6244633;28;20017;-70
2021/12/25 13:59:21;;;;;;;13.60;5.03;;;;;;;;;;6243051;28;20028;-70
2021/12/25 14:02:22;;;;;;;18.88;6.57;;;;;;;;;;6244762;28;20018;-70
2021/12/25 14:05:25;;;;;;;15.70;5.90;;;;;;;;;;6244518;28;20093;-70
2021/12/25 14:08:27;;;;;;;17.73;7.20;;;;;;;;;;6244264;28;20025;-70
2021/12/25 14:11:28;;;;;;;29.85;7.95;;;;;;;;;;6244223;28;20547;-70
2021/12/25 14:14:30;;;;;;;20.27;8.75;;;;;;;;;;6244474;28;20041;-70
2021/12/25 14:17:31;;;;;;;37.97;13.32;;;;;;;;;;6243981;28;20021;-70
2021/12/25 14:20:36;;;;;;;23.90;9.53;;;;;;;;;;6243633;28;20025;-70
2021/12/25 14:23:36;;;;;;;20.00;6.32;;;;;;;;;;6243729;28;20046;-70
2021/12/25 14:26:37;;;;;;;22.50;7.82;;;;;;;;;;6242681;28;20021;-69
2021/12/25 14:29:37;;;;;;;18.95;7.78;;;;;;;;;;6219651;28;20353;-70
2021/12/25 14:32:38;;;;;;;22.00;7.65;;;;;;;;;;6218938;28;20093;-70
2021/12/25 14:35:38;;;;;;;17.95;7.53;;;;;;;;;;6219071;28;20369;-69
2021/12/25 14:38:41;;;;;;;19.15;6.30;;;;;;;;;;6218458;28;20018;-69
2021/12/25 14:41:42;;;;;;;19.13;6.40;;;;;;;;;;6227157;28;20017;-69
2021/12/25 14:44:42;;;;;;;18.38;6.82;;;;;;;;;;6244163;28;20021;-69
2021/12/25 14:47:53;;;;;;;17.35;6.65;;;;;;;;;;6243600;28;20343;-69
2021/12/25 14:50:57;;;;;;;19.05;6.45;;;;;;;;;;6244007;28;20051;-69
2021/12/25 14:54:01;;;;;;;17.67;6.72;;;;;;;;;;6244153;28;20500;-69
2021/12/25 14:57:01;;;;;;;25.42;8.10;;;;;;;;;;6243212;28;20021;-69
2021/12/25 15:00:03;;;;;;;28.23;8.38;;;;;;;;;;6243836;28;20022;-69
2021/12/25 15:03:10;;;;;;;25.10;8.60;;;;;;;;;;6244002;28;20102;-69
2021/12/25 15:06:18;;;;;;;38.67;13.38;;;;;;;;;;6243883;28;20017;-69
2021/12/25 15:09:20;;;;;;;23.65;11.27;;;;;;;;;;6243128;28;20105;-69
2021/12/25 15:12:22;;;;;;;30.50;13.02;;;;;;;;;;6243587;28;20041;-69
2021/12/25 15:15:23;;;;;;;30.20;12.60;;;;;;;;;;6243854;28;20021;-69
2021/12/25 15:18:41;;;;;;;37.93;14.10;;;;;;;;;;6243274;28;20531;-69
2021/12/25 15:21:43;;;;;;;37.63;14.95;;;;;;;;;;6243325;28;20018;-69
2021/12/25 15:24:54;;;;;;;38.13;13.45;;;;;;;;;;6242260;28;20021;-69
2021/12/25 15:27:56;;;;;;;32.90;12.35;;;;;;;;;;6233257;28;20049;-69
2021/12/25 15:30:56;;;;;;;35.90;13.02;;;;;;;;;;6222120;28;20391;-69
2021/12/25 15:33:58;;;;;;;31.80;13.07;;;;;;;;;;6224006;28;20056;-68
2021/12/25 15:36:59;;;;;;;34.75;13.40;;;;;;;;;;6223558;28;20056;-68
2021/12/25 15:40:05;;;;;;;45.92;14.70;;;;;;;;;;6223250;28;20033;-68
2021/12/25 15:43:06;;;;;;;42.50;15.30;;;;;;;;;;6258684;28;20048;-68
2021/12/25 15:46:06;;;;;;;34.25;15.82;;;;;;;;;;6248246;28;20525;-68
2021/12/25 15:49:07;;;;;;;43.92;19.80;;;;;;;;;;6247696;28;20029;-67
2021/12/25 15:52:08;;;;;;;50.53;19.27;;;;;;;;;;6248428;28;20028;-67
2021/12/25 15:55:09;;;;;;;46.55;18.48;;;;;;;;;;6248066;28;20534;-67
2021/12/25 15:58:13;;;;;;;41.30;17.92;;;;;;;;;;6247391;28;20025;-67
2021/12/25 16:01:13;;;;;;;48.28;19.60;;;;;;;;;;6247933;28;20021;-67
2021/12/25 16:04:13;;;;;;;64.50;23.80;;;;;;;;;;6248092;28;20101;-67
2021/12/25 16:07:14;;;;;;;46.20;22.45;;;;;;;;;;6247462;28;20103;-67
2021/12/25 16:10:14;;;;;;;56.40;23.33;;;;;;;;;;6247271;28;20022;-67
2021/12/25 16:13:19;;;;;;;50.78;20.95;;;;;;;;;;6247615;28;20081;-68
2021/12/25 16:16:20;;;;;;;55.58;20.67;;;;;;;;;;6247764;28;20017;-67
2021/12/25 16:19:21;;;;;;;52.65;20.33;;;;;;;;;;6247129;28;20032;-67
2021/12/25 16:22:21;;;;;;;60.25;24.02;;;;;;;;;;6247160;28;20151;-67
2021/12/25 16:25:21;;;;;;;54.75;25.42;;;;;;;;;;6247105;28;20509;-67
2021/12/25 16:28:21;;;;;;;64.53;25.63;;;;;;;;;;6233270;28;20029;-67
2021/12/25 16:31:22;;;;;;;87.70;33.58;;;;;;;;;;6222676;28;20474;-67
2021/12/25 16:34:22;;;;;;;92.67;38.63;;;;;;;;;;6222656;28;20073;-66
2021/12/25 16:37:22;;;;;;;78.55;31.48;;;;;;;;;;6221848;28;20033;-67
2021/12/25 16:40:22;;;;;;;86.13;32.33;;;;;;;;;;6222544;28;20022;-67
2021/12/25 16:43:23;;;;;;;94.13;36.95;;;;;;;;;;6244012;28;20028;-67
2021/12/25 16:46:23;;;;;;;100.60;33.80;;;;;;;;;;6245588;28;20022;-66
2021/12/25 16:49:27;;;;;;;69.57;24.30;;;;;;;;;;6246125;28;20033;-66
2021/12/25 16:52:27;;;;;;;53.25;20.33;;;;;;;;;;6246656;28;20052;-66
2021/12/25 16:55:29;;;;;;;61.80;22.70;;;;;;;;;;6246543;28;20021;-66
2021/12/25 16:58:30;;;;;;;74.15;26.48;;;;;;;;;;6246431;28;20350;-66
2021/12/25 17:01:30;;;;;;;49.05;22.10;;;;;;;;;;6246341;28;20053;-66
2021/12/25 17:04:30;;;;;;;50.40;19.48;;;;;;;;;;6229840;28;20025;-66
2021/12/25 17:07:31;;;;;;;62.75;22.55;;;;;;;;;;6234103;28;20029;-66
2021/12/25 17:10:31;;;;;;;78.90;27.42;;;;;;;;;;6245924;28;20084;-66
2021/12/25 17:13:32;;;;;;;55.37;22.30;;;;;;;;;;6246184;28;20053;-66
2021/12/25 17:16:33;;;;;;;52.07;24.53;;;;;;;;;;6246270;28;20096;-66
2021/12/25 17:19:33;;;;;;;56.03;21.63;;;;;;;;;;6245373;28;20513;-66
2021/12/25 17:22:34;;;;;;;48.67;18.70;;;;;;;;;;6242181;28;20029;-66
2021/12/25 17:25:34;;;;;;;40.27;18.83;;;;;;;;;;6242426;28;20021;-66
2021/12/25 17:28:34;;;;;;;56.93;23.37;;;;;;;;;;6242039;28;20035;-66
2021/12/25 17:31:35;;;;;;;74.15;28.13;;;;;;;;;;6241951;28;20053;-66
2021/12/25 17:34:35;;;;;;;70.78;25.80;;;;;;;;;;6238886;28;20026;-66
2021/12/25 17:37:35;;;;;;;60.42;27.98;;;;;;;;;;6230689;28;20421;-66
2021/12/25 17:40:38;;;;;;;70.33;23.43;;;;;;;;;;6238073;28;20041;-66
2021/12/25 17:43:40;;;;;;;71.93;27.33;;;;;;;;;;6236127;28;20026;-66
2021/12/25 17:46:41;;;;;;;66.70;25.83;;;;;;;;;;6223191;28;20026;-66
2021/12/25 17:49:41;;;;;;;72.93;26.15;;;;;;;;;;6235347;28;20036;-66
2021/12/25 17:52:42;;;;;;;64.70;25.10;;;;;;;;;;6241454;28;20454;-66
2021/12/25 17:55:42;;;;;;;67.93;27.13;;;;;;;;;;6238912;28;20025;-66
2021/12/25 17:58:43;;;;;;;65.97;27.60;;;;;;;;;;6242340;28;20428;-66
2021/12/25 18:01:43;;;;;;;67.47;24.73;;;;;;;;;;6232346;28;20654;-66
2021/12/25 18:04:43;;;;;;;53.27;24.23;;;;;;;;;;6216091;28;20226;-66
2021/12/25 18:07:43;;;;;;;73.00;30.87;;;;;;;;;;6215006;28;20028;-66
2021/12/25 18:10:44;;;;;;;89.40;31.27;;;;;;;;;;6239544;28;20359;-66
2021/12/25 18:13:44;;;;;;;59.07;25.43;;;;;;;;;;6242394;28;20409;-66
2021/12/25 18:16:51;;;;;;;65.18;27.92;;;;;;;;;;6287095;28;20890;-66
2021/12/25 18:19:52;;;;;;;72.90;28.93;;;;;;;;;;6284547;28;20072;-66
2021/12/25 18:22:52;;;;;;;64.97;26.97;;;;;;;;;;6280404;28;20055;-66
2021/12/25 18:25:53;;;;;;;65.23;26.47;;;;;;;;;;6263459;28;20489;-66
2021/12/25 18:28:53;;;;;;;67.40;25.83;;;;;;;;;;6227220;28;20022;-66
2021/12/25 18:31:54;;;;;;;64.10;28.13;;;;;;;;;;6215604;28;20018;-66
2021/12/25 18:34:54;;;;;;;92.43;42.00;;;;;;;;;;6229997;28;20030;-66
2021/12/25 18:37:54;;;;;;;63.33;26.07;;;;;;;;;;6235913;28;20021;-66
2021/12/25 18:40:55;;;;;;;64.67;28.87;;;;;;;;;;6223166;28;20522;-66
2021/12/25 18:43:55;;;;;;;79.87;35.03;;;;;;;;;;6223828;28;20022;-66
2021/12/25 18:46:56;;;;;;;109.00;49.93;;;;;;;;;;6233004;28;20021;-66
2021/12/25 18:49:56;;;;;;;71.87;31.50;;;;;;;;;;6237400;28;20120;-66
2021/12/25 18:52:58;;;;;;;74.27;27.27;;;;;;;;;;6240290;28;20549;-66
2021/12/25 18:55:58;;;;;;;60.25;26.02;;;;;;;;;;6238577;28;20244;-66
2021/12/25 18:58:59;;;;;;;81.97;30.57;;;;;;;;;;6238319;28;20014;-66
2021/12/25 19:01:59;;;;;;;66.10;30.03;;;;;;;;;;6238683;28;20018;-66
2021/12/25 19:04:59;;;;;;;73.27;30.57;;;;;;;;;;6238867;28;20022;-66
2021/12/25 19:08:00;;;;;;;84.83;34.33;;;;;;;;;;6238164;28;20018;-66